Euclid Heights, Arkansas
Current Conditions -  °F | °C
As of 7:53 PM on Saturday 20 Dec 2014 (Local Time) from KHOT Reporting Station
Overcast Overcast  
Wind Chill: 45°   Ceiling: 4000
Heat Index: 47°   Visibility: 10mi
Dew Point: 40°   Wind: 5mph
Humidity: 77%   Direction: 90°E
Pressure: 30.23"   Gusts: NA
Location:  34.5331°N, 93.0035°W
Report Text: KHOT 210153Z AUTO 09004KT 10SM OVC040 08/04 A3023 RMK AO2 SLP236 T00830044
Loading
Personal Weather Stations






























Interactive Weather Map New forecast layout! Learn more

10-Day Weather Forecast

Advertisements
Track Severe Weather on mobile